sensor_id;sensor_type;location;lat;lon;timestamp;pressure;altitude;pressure_sealevel;temperature;humidity
48846;BME280;34665;51.886;5.436;2023-08-07T00:00:28;101129.50;;;22.29;100.00
48846;BME280;34665;51.886;5.436;2023-08-07T00:02:53;101126.31;;;22.53;100.00
48846;BME280;34665;51.886;5.436;2023-08-07T00:05:18;101126.75;;;22.18;100.00
48846;BME280;34665;51.886;5.436;2023-08-07T00:07:44;101134.09;;;22.23;100.00
48846;BME280;34665;51.886;5.436;2023-08-07T00:10:09;101130.63;;;22.38;100.00
48846;BME280;34665;51.886;5.436;2023-08-07T00:12:35;101132.28;;;22.44;100.00
48846;BME280;34665;51.886;5.436;2023-08-07T00:15:01;101133.41;;;22.54;100.00
48846;BME280;34665;51.886;5.436;2023-08-07T00:17:26;101136.75;;;22.97;100.00
48846;BME280;34665;51.886;5.436;2023-08-07T00:19:52;101131.59;;;23.27;100.00
48846;BME280;34665;51.886;5.436;2023-08-07T00:22:18;101133.56;;;22.21;100.00
48846;BME280;34665;51.886;5.436;2023-08-07T00:24:43;101140.81;;;22.79;100.00
48846;BME280;34665;51.886;5.436;2023-08-07T00:27:09;101128.31;;;21.99;100.00
48846;BME280;34665;51.886;5.436;2023-08-07T00:29:40;101132.88;;;22.57;100.00
48846;BME280;34665;51.886;5.436;2023-08-07T00:32:06;101139.16;;;22.68;100.00
48846;BME280;34665;51.886;5.436;2023-08-07T00:34:31;101133.47;;;23.05;100.00
48846;BME280;34665;51.886;5.436;2023-08-07T00:36:56;101139.69;;;22.54;100.00
48846;BME280;34665;51.886;5.436;2023-08-07T00:39:23;101137.06;;;22.11;100.00
48846;BME280;34665;51.886;5.436;2023-08-07T00:41:50;101132.22;;;22.29;100.00
48846;BME280;34665;51.886;5.436;2023-08-07T00:44:15;101131.69;;;22.32;100.00
48846;BME280;34665;51.886;5.436;2023-08-07T00:46:41;101142.53;;;22.16;100.00
48846;BME280;34665;51.886;5.436;2023-08-07T00:49:08;101135.81;;;21.76;100.00
48846;BME280;34665;51.886;5.436;2023-08-07T00:51:36;101138.59;;;21.11;100.00
48846;BME280;34665;51.886;5.436;2023-08-07T00:54:03;101131.94;;;21.29;100.00
48846;BME280;34665;51.886;5.436;2023-08-07T00:56:29;101133.66;;;21.40;100.00
48846;BME280;34665;51.886;5.436;2023-08-07T00:58:55;101141.38;;;21.97;100.00
48846;BME280;34665;51.886;5.436;2023-08-07T01:01:20;101148.00;;;22.22;100.00
48846;BME280;34665;51.886;5.436;2023-08-07T01:03:46;101132.09;;;21.55;100.00
48846;BME280;34665;51.886;5.436;2023-08-07T01:06:12;101140.84;;;22.00;100.00
48846;BME280;34665;51.886;5.436;2023-08-07T01:08:38;101148.28;;;22.25;100.00
48846;BME280;34665;51.886;5.436;2023-08-07T01:11:24;101142.22;;;21.59;100.00
48846;BME280;34665;51.886;5.436;2023-08-07T01:16:26;101144.88;;;21.92;100.00
48846;BME280;34665;51.886;5.436;2023-08-07T01:18:53;101148.66;;;21.81;100.00
48846;BME280;34665;51.886;5.436;2023-08-07T01:21:20;101143.59;;;21.62;100.00
48846;BME280;34665;51.886;5.436;2023-08-07T01:23:46;101158.88;;;22.16;100.00
48846;BME280;34665;51.886;5.436;2023-08-07T01:26:11;101160.13;;;21.93;100.00
48846;BME280;34665;51.886;5.436;2023-08-07T01:28:38;101151.28;;;22.18;100.00
48846;BME280;34665;51.886;5.436;2023-08-07T01:31:08;101154.28;;;21.69;100.00
48846;BME280;34665;51.886;5.436;2023-08-07T01:33:50;101156.00;;;21.85;100.00
48846;BME280;34665;51.886;5.436;2023-08-07T01:36:19;101148.13;;;22.53;100.00
48846;BME280;34665;51.886;5.436;2023-08-07T01:38:45;101151.66;;;21.89;100.00
48846;BME280;34665;51.886;5.436;2023-08-07T01:41:14;101144.69;;;21.61;100.00
48846;BME280;34665;51.886;5.436;2023-08-07T01:43:39;101154.66;;;21.88;100.00
48846;BME280;34665;51.886;5.436;2023-08-07T01:46:05;101151.63;;;21.41;100.00
48846;BME280;34665;51.886;5.436;2023-08-07T01:48:32;101152.59;;;21.30;100.00
48846;BME280;34665;51.886;5.436;2023-08-07T01:50:57;101155.69;;;21.44;100.00
48846;BME280;34665;51.886;5.436;2023-08-07T01:53:23;101156.84;;;21.48;100.00
48846;BME280;34665;51.886;5.436;2023-08-07T01:55:48;101151.31;;;21.38;100.00
48846;BME280;34665;51.886;5.436;2023-08-07T01:58:14;101160.94;;;21.56;100.00
48846;BME280;34665;51.886;5.436;2023-08-07T02:00:39;101166.22;;;21.30;100.00
48846;BME280;34665;51.886;5.436;2023-08-07T02:03:07;101163.72;;;21.23;100.00
48846;BME280;34665;51.886;5.436;2023-08-07T02:05:33;101172.97;;;21.60;100.00
48846;BME280;34665;51.886;5.436;2023-08-07T02:07:58;101163.81;;;21.33;100.00
48846;BME280;34665;51.886;5.436;2023-08-07T02:10:24;101157.47;;;21.23;100.00
48846;BME280;34665;51.886;5.436;2023-08-07T02:12:49;101168.56;;;21.54;100.00
48846;BME280;34665;51.886;5.436;2023-08-07T02:15:15;101171.19;;;21.71;100.00
48846;BME280;34665;51.886;5.436;2023-08-07T02:17:40;101172.56;;;21.78;100.00
48846;BME280;34665;51.886;5.436;2023-08-07T02:20:06;101167.63;;;21.70;100.00
48846;BME280;34665;51.886;5.436;2023-08-07T02:22:32;101184.00;;;22.34;100.00
48846;BME280;34665;51.886;5.436;2023-08-07T02:24:57;101184.66;;;21.98;100.00
48846;BME280;34665;51.886;5.436;2023-08-07T02:27:23;101175.06;;;21.47;100.00
48846;BME280;34665;51.886;5.436;2023-08-07T02:29:48;101180.59;;;22.01;100.00
48846;BME280;34665;51.886;5.436;2023-08-07T02:32:16;101175.94;;;21.58;100.00
48846;BME280;34665;51.886;5.436;2023-08-07T02:34:42;101173.09;;;22.34;100.00
48846;BME280;34665;51.886;5.436;2023-08-07T02:37:08;101181.88;;;21.88;100.00
48846;BME280;34665;51.886;5.436;2023-08-07T02:39:33;101186.13;;;22.22;100.00
48846;BME280;34665;51.886;5.436;2023-08-07T02:41:59;101177.00;;;21.52;100.00
48846;BME280;34665;51.886;5.436;2023-08-07T02:44:25;101177.19;;;21.78;100.00
48846;BME280;34665;51.886;5.436;2023-08-07T02:46:51;101169.41;;;21.59;100.00
48846;BME280;34665;51.886;5.436;2023-08-07T02:49:17;101176.22;;;22.63;100.00
48846;BME280;34665;51.886;5.436;2023-08-07T02:51:42;101178.09;;;22.53;100.00
48846;BME280;34665;51.886;5.436;2023-08-07T02:54:08;101170.13;;;22.35;100.00
48846;BME280;34665;51.886;5.436;2023-08-07T02:56:33;101180.44;;;22.28;100.00
48846;BME280;34665;51.886;5.436;2023-08-07T02:58:59;101172.88;;;21.87;100.00
48846;BME280;34665;51.886;5.436;2023-08-07T03:01:26;101168.09;;;22.05;100.00
48846;BME280;34665;51.886;5.436;2023-08-07T03:03:53;101178.38;;;22.51;100.00
48846;BME280;34665;51.886;5.436;2023-08-07T03:06:18;101182.75;;;22.57;100.00
48846;BME280;34665;51.886;5.436;2023-08-07T03:08:44;101183.22;;;21.85;100.00
48846;BME280;34665;51.886;5.436;2023-08-07T03:11:09;101171.88;;;22.04;100.00
48846;BME280;34665;51.886;5.436;2023-08-07T03:13:35;101175.03;;;21.80;100.00
48846;BME280;34665;51.886;5.436;2023-08-07T03:16:01;101171.19;;;22.29;100.00
48846;BME280;34665;51.886;5.436;2023-08-07T03:18:26;101175.50;;;22.20;100.00
48846;BME280;34665;51.886;5.436;2023-08-07T03:20:52;101176.78;;;22.66;100.00
48846;BME280;34665;51.886;5.436;2023-08-07T03:23:17;101173.25;;;21.63;100.00
48846;BME280;34665;51.886;5.436;2023-08-07T03:25:44;101166.31;;;21.78;100.00
48846;BME280;34665;51.886;5.436;2023-08-07T03:28:09;101170.88;;;22.15;100.00
48846;BME280;34665;51.886;5.436;2023-08-07T03:30:35;101156.31;;;21.51;100.00
48846;BME280;34665;51.886;5.436;2023-08-07T03:33:01;101172.25;;;22.23;100.00
48846;BME280;34665;51.886;5.436;2023-08-07T03:35:27;101170.50;;;22.01;100.00
48846;BME280;34665;51.886;5.436;2023-08-07T03:37:53;101178.72;;;22.06;100.00
48846;BME280;34665;51.886;5.436;2023-08-07T03:40:19;101180.47;;;22.39;100.00
48846;BME280;34665;51.886;5.436;2023-08-07T03:42:44;101181.28;;;22.34;100.00
48846;BME280;34665;51.886;5.436;2023-08-07T03:45:10;101181.91;;;22.52;100.00
48846;BME280;34665;51.886;5.436;2023-08-07T03:47:38;101176.13;;;22.43;100.00
48846;BME280;34665;51.886;5.436;2023-08-07T03:50:04;101181.91;;;22.46;100.00
48846;BME280;34665;51.886;5.436;2023-08-07T03:52:30;101179.25;;;22.67;100.00
48846;BME280;34665;51.886;5.436;2023-08-07T03:54:56;101174.41;;;22.16;100.00
48846;BME280;34665;51.886;5.436;2023-08-07T03:57:22;101179.59;;;22.17;100.00
48846;BME280;34665;51.886;5.436;2023-08-07T03:59:48;101168.84;;;21.52;100.00
48846;BME280;34665;51.886;5.436;2023-08-07T04:02:14;101170.66;;;21.74;100.00
48846;BME280;34665;51.886;5.436;2023-08-07T04:04:39;101170.50;;;22.01;100.00
48846;BME280;34665;51.886;5.436;2023-08-07T04:07:06;101187.09;;;21.95;100.00
48846;BME280;34665;51.886;5.436;2023-08-07T04:09:31;101184.19;;;22.12;100.00
48846;BME280;34665;51.886;5.436;2023-08-07T04:11:57;101187.78;;;22.23;100.00
48846;BME280;34665;51.886;5.436;2023-08-07T04:14:23;101181.16;;;22.08;100.00
48846;BME280;34665;51.886;5.436;2023-08-07T04:16:48;101176.66;;;21.81;100.00
48846;BME280;34665;51.886;5.436;2023-08-07T04:19:14;101181.41;;;22.01;100.00
48846;BME280;34665;51.886;5.436;2023-08-07T04:21:39;101181.78;;;22.26;100.00
48846;BME280;34665;51.886;5.436;2023-08-07T04:24:05;101190.63;;;22.48;100.00
48846;BME280;34665;51.886;5.436;2023-08-07T04:26:35;101178.69;;;22.65;100.00
48846;BME280;34665;51.886;5.436;2023-08-07T04:29:01;101190.16;;;22.72;100.00
48846;BME280;34665;51.886;5.436;2023-08-07T04:31:27;101194.19;;;22.59;100.00
48846;BME280;34665;51.886;5.436;2023-08-07T04:33:52;101189.31;;;22.72;100.00
48846;BME280;34665;51.886;5.436;2023-08-07T04:36:19;101183.41;;;22.16;100.00
48846;BME280;34665;51.886;5.436;2023-08-07T04:38:46;101186.28;;;22.58;100.00
48846;BME280;34665;51.886;5.436;2023-08-07T04:41:12;101186.03;;;22.70;100.00
48846;BME280;34665;51.886;5.436;2023-08-07T04:43:37;101200.41;;;22.44;100.00
48846;BME280;34665;51.886;5.436;2023-08-07T04:46:03;101205.41;;;22.68;100.00
48846;BME280;34665;51.886;5.436;2023-08-07T04:48:28;101209.44;;;22.50;100.00
48846;BME280;34665;51.886;5.436;2023-08-07T04:50:54;101199.91;;;22.53;100.00
48846;BME280;34665;51.886;5.436;2023-08-07T04:53:19;101207.97;;;22.32;100.00
48846;BME280;34665;51.886;5.436;2023-08-07T04:55:45;101200.97;;;21.55;100.00
48846;BME280;34665;51.886;5.436;2023-08-07T04:58:11;101202.91;;;21.98;100.00
48846;BME280;34665;51.886;5.436;2023-08-07T05:00:37;101204.59;;;22.14;100.00
48846;BME280;34665;51.886;5.436;2023-08-07T05:03:02;101202.06;;;21.97;100.00
48846;BME280;34665;51.886;5.436;2023-08-07T05:05:27;101210.38;;;22.23;100.00
48846;BME280;34665;51.886;5.436;2023-08-07T05:07:54;101200.72;;;21.95;100.00
48846;BME280;34665;51.886;5.436;2023-08-07T05:10:19;101204.81;;;22.02;100.00
48846;BME280;34665;51.886;5.436;2023-08-07T05:12:45;101210.25;;;22.56;100.00
48846;BME280;34665;51.886;5.436;2023-08-07T05:15:10;101213.94;;;22.29;100.00
48846;BME280;34665;51.886;5.436;2023-08-07T05:17:36;101222.59;;;22.74;100.00
48846;BME280;34665;51.886;5.436;2023-08-07T05:20:01;101217.72;;;22.17;100.00
48846;BME280;34665;51.886;5.436;2023-08-07T05:22:27;101220.53;;;22.38;100.00
48846;BME280;34665;51.886;5.436;2023-08-07T05:24:53;101227.94;;;22.48;100.00
48846;BME280;34665;51.886;5.436;2023-08-07T05:27:19;101223.97;;;22.18;100.00
48846;BME280;34665;51.886;5.436;2023-08-07T05:29:44;101226.56;;;21.92;100.00
48846;BME280;34665;51.886;5.436;2023-08-07T05:32:10;101224.72;;;22.08;100.00
48846;BME280;34665;51.886;5.436;2023-08-07T05:34:37;101231.94;;;22.35;100.00
48846;BME280;34665;51.886;5.436;2023-08-07T05:37:02;101232.34;;;22.49;100.00
48846;BME280;34665;51.886;5.436;2023-08-07T05:39:27;101234.72;;;22.40;100.00
48846;BME280;34665;51.886;5.436;2023-08-07T05:41:53;101237.50;;;22.02;100.00
48846;BME280;34665;51.886;5.436;2023-08-07T05:44:20;101248.59;;;23.18;100.00
48846;BME280;34665;51.886;5.436;2023-08-07T05:46:45;101248.63;;;23.28;100.00
48846;BME280;34665;51.886;5.436;2023-08-07T05:49:10;101253.91;;;22.13;100.00
48846;BME280;34665;51.886;5.436;2023-08-07T05:51:36;101246.34;;;21.82;100.00
48846;BME280;34665;51.886;5.436;2023-08-07T05:54:01;101244.69;;;21.76;100.00
48846;BME280;34665;51.886;5.436;2023-08-07T05:56:27;101251.19;;;22.66;100.00
48846;BME280;34665;51.886;5.436;2023-08-07T05:58:52;101259.59;;;22.54;100.00
48846;BME280;34665;51.886;5.436;2023-08-07T06:01:18;101262.72;;;22.84;100.00
48846;BME280;34665;51.886;5.436;2023-08-07T06:03:43;101253.41;;;22.74;100.00
48846;BME280;34665;51.886;5.436;2023-08-07T06:06:09;101263.09;;;23.29;100.00
48846;BME280;34665;51.886;5.436;2023-08-07T06:08:34;101266.03;;;23.17;100.00
48846;BME280;34665;51.886;5.436;2023-08-07T06:11:00;101269.31;;;23.09;100.00
48846;BME280;34665;51.886;5.436;2023-08-07T06:13:30;101262.38;;;22.70;100.00
48846;BME280;34665;51.886;5.436;2023-08-07T06:15:55;101271.19;;;22.98;100.00
48846;BME280;34665;51.886;5.436;2023-08-07T06:18:22;101270.84;;;22.78;100.00
48846;BME280;34665;51.886;5.436;2023-08-07T06:20:47;101275.59;;;22.40;100.00
48846;BME280;34665;51.886;5.436;2023-08-07T06:23:13;101293.94;;;23.40;100.00
48846;BME280;34665;51.886;5.436;2023-08-07T06:25:38;101292.50;;;23.16;100.00
48846;BME280;34665;51.886;5.436;2023-08-07T06:28:04;101290.47;;;22.81;100.00
48846;BME280;34665;51.886;5.436;2023-08-07T06:30:32;101294.13;;;23.17;100.00
48846;BME280;34665;51.886;5.436;2023-08-07T06:32:57;101284.59;;;22.46;100.00
48846;BME280;34665;51.886;5.436;2023-08-07T06:35:23;101292.22;;;23.13;100.00
48846;BME280;34665;51.886;5.436;2023-08-07T06:37:49;101293.81;;;21.91;100.00
48846;BME280;34665;51.886;5.436;2023-08-07T06:40:14;101299.66;;;22.59;100.00
48846;BME280;34665;51.886;5.436;2023-08-07T06:42:40;101292.53;;;22.47;100.00
48846;BME280;34665;51.886;5.436;2023-08-07T06:45:05;101300.06;;;21.92;100.00
48846;BME280;34665;51.886;5.436;2023-08-07T06:47:31;101305.47;;;22.25;100.00
48846;BME280;34665;51.886;5.436;2023-08-07T06:49:57;101306.91;;;22.91;100.00
48846;BME280;34665;51.886;5.436;2023-08-07T06:52:22;101319.59;;;23.44;100.00
48846;BME280;34665;51.886;5.436;2023-08-07T06:54:48;101318.41;;;23.14;100.00
48846;BME280;34665;51.886;5.436;2023-08-07T06:57:14;101320.56;;;23.06;100.00
48846;BME280;34665;51.886;5.436;2023-08-07T06:59:40;101320.53;;;22.86;100.00
48846;BME280;34665;51.886;5.436;2023-08-07T07:02:05;101315.50;;;22.62;100.00
48846;BME280;34665;51.886;5.436;2023-08-07T07:04:31;101317.69;;;22.65;100.00
48846;BME280;34665;51.886;5.436;2023-08-07T07:06:57;101315.59;;;22.34;100.00
48846;BME280;34665;51.886;5.436;2023-08-07T07:09:22;101324.16;;;22.54;100.00
48846;BME280;34665;51.886;5.436;2023-08-07T07:11:48;101325.88;;;24.22;100.00
48846;BME280;34665;51.886;5.436;2023-08-07T07:14:13;101325.84;;;24.38;100.00
48846;BME280;34665;51.886;5.436;2023-08-07T07:16:39;101334.50;;;24.66;100.00
48846;BME280;34665;51.886;5.436;2023-08-07T07:19:05;101342.03;;;24.03;100.00
48846;BME280;34665;51.886;5.436;2023-08-07T07:21:33;101357.84;;;24.27;100.00
48846;BME280;34665;51.886;5.436;2023-08-07T07:23:59;101354.59;;;24.09;100.00
48846;BME280;34665;51.886;5.436;2023-08-07T07:26:25;101359.44;;;23.40;100.00
48846;BME280;34665;51.886;5.436;2023-08-07T07:28:51;101349.78;;;23.11;100.00
48846;BME280;34665;51.886;5.436;2023-08-07T07:31:16;101356.47;;;23.77;100.00
48846;BME280;34665;51.886;5.436;2023-08-07T07:33:42;101355.47;;;23.04;100.00
48846;BME280;34665;51.886;5.436;2023-08-07T07:36:12;101351.16;;;23.24;100.00
48846;BME280;34665;51.886;5.436;2023-08-07T07:38:38;101350.22;;;22.87;100.00
48846;BME280;34665;51.886;5.436;2023-08-07T07:41:03;101352.50;;;23.16;100.00
48846;BME280;34665;51.886;5.436;2023-08-07T07:43:29;101360.91;;;22.94;100.00
48846;BME280;34665;51.886;5.436;2023-08-07T07:45:54;101370.19;;;23.03;100.00
48846;BME280;34665;51.886;5.436;2023-08-07T07:48:20;101365.44;;;23.52;100.00
48846;BME280;34665;51.886;5.436;2023-08-07T07:50:45;101375.88;;;23.76;100.00
48846;BME280;34665;51.886;5.436;2023-08-07T07:53:11;101377.69;;;23.34;100.00
48846;BME280;34665;51.886;5.436;2023-08-07T07:55:36;101375.81;;;23.45;100.00
48846;BME280;34665;51.886;5.436;2023-08-07T07:58:03;101381.59;;;23.74;100.00
48846;BME280;34665;51.886;5.436;2023-08-07T08:00:29;101389.56;;;24.02;100.00
48846;BME280;34665;51.886;5.436;2023-08-07T08:02:54;101388.81;;;23.22;100.00
48846;BME280;34665;51.886;5.436;2023-08-07T08:05:20;101393.09;;;23.92;100.00
48846;BME280;34665;51.886;5.436;2023-08-07T08:07:47;101397.91;;;24.88;100.00
48846;BME280;34665;51.886;5.436;2023-08-07T08:10:12;101395.19;;;24.83;100.00
48846;BME280;34665;51.886;5.436;2023-08-07T08:12:38;101396.00;;;24.84;100.00
48846;BME280;34665;51.886;5.436;2023-08-07T08:15:04;101404.53;;;25.38;100.00
48846;BME280;34665;51.886;5.436;2023-08-07T08:17:30;101405.25;;;24.98;100.00
48846;BME280;34665;51.886;5.436;2023-08-07T08:19:56;101406.75;;;23.92;100.00
48846;BME280;34665;51.886;5.436;2023-08-07T08:22:21;101408.41;;;24.09;100.00
48846;BME280;34665;51.886;5.436;2023-08-07T08:24:47;101407.53;;;24.55;100.00
48846;BME280;34665;51.886;5.436;2023-08-07T08:27:15;101414.06;;;24.64;100.00
48846;BME280;34665;51.886;5.436;2023-08-07T08:29:43;101409.69;;;24.63;100.00
48846;BME280;34665;51.886;5.436;2023-08-07T08:32:08;101410.56;;;24.32;100.00
48846;BME280;34665;51.886;5.436;2023-08-07T08:34:35;101416.78;;;24.95;100.00
48846;BME280;34665;51.886;5.436;2023-08-07T08:37:00;101417.84;;;25.60;100.00
48846;BME280;34665;51.886;5.436;2023-08-07T08:39:26;101430.31;;;25.82;100.00
48846;BME280;34665;51.886;5.436;2023-08-07T08:41:51;101408.63;;;25.40;99.32
48846;BME280;34665;51.886;5.436;2023-08-07T08:44:17;101411.84;;;24.87;98.57
48846;BME280;34665;51.886;5.436;2023-08-07T08:46:44;101420.09;;;24.66;95.41
48846;BME280;34665;51.886;5.436;2023-08-07T08:49:12;101421.72;;;24.67;95.01
48846;BME280;34665;51.886;5.436;2023-08-07T08:51:41;101425.78;;;25.61;90.25
48846;BME280;34665;51.886;5.436;2023-08-07T08:54:07;101428.69;;;25.25;90.48
48846;BME280;34665;51.886;5.436;2023-08-07T08:56:33;101428.13;;;25.28;84.89
48846;BME280;34665;51.886;5.436;2023-08-07T08:58:59;101430.25;;;25.47;83.95
48846;BME280;34665;51.886;5.436;2023-08-07T09:01:25;101425.09;;;25.80;81.79
48846;BME280;34665;51.886;5.436;2023-08-07T09:03:53;101427.03;;;25.80;79.04
48846;BME280;34665;51.886;5.436;2023-08-07T09:06:18;101436.06;;;26.20;75.82
48846;BME280;34665;51.886;5.436;2023-08-07T09:08:44;101440.81;;;26.04;76.65
48846;BME280;34665;51.886;5.436;2023-08-07T09:11:10;101426.88;;;25.60;82.78
48846;BME280;34665;51.886;5.436;2023-08-07T09:13:36;101427.38;;;25.68;83.77
48846;BME280;34665;51.886;5.436;2023-08-07T09:16:02;101446.22;;;26.14;76.80
48846;BME280;34665;51.886;5.436;2023-08-07T09:18:28;101442.41;;;25.70;81.10
48846;BME280;34665;51.886;5.436;2023-08-07T09:20:53;101447.19;;;25.94;75.70
48846;BME280;34665;51.886;5.436;2023-08-07T09:23:18;101453.00;;;26.57;73.26
48846;BME280;34665;51.886;5.436;2023-08-07T09:25:45;101463.22;;;26.75;71.47
48846;BME280;34665;51.886;5.436;2023-08-07T09:28:11;101454.59;;;26.63;71.74
48846;BME280;34665;51.886;5.436;2023-08-07T09:30:37;101462.19;;;26.02;71.49
48846;BME280;34665;51.886;5.436;2023-08-07T09:33:03;101468.03;;;26.65;72.31
48846;BME280;34665;51.886;5.436;2023-08-07T09:35:29;101484.56;;;26.54;78.97
48846;BME280;34665;51.886;5.436;2023-08-07T09:37:56;101483.25;;;25.67;78.10
48846;BME280;34665;51.886;5.436;2023-08-07T09:40:21;101475.88;;;26.71;79.75
48846;BME280;34665;51.886;5.436;2023-08-07T09:42:51;101476.75;;;26.37;79.07
48846;BME280;34665;51.886;5.436;2023-08-07T09:45:23;101484.63;;;27.27;77.40
48846;BME280;34665;51.886;5.436;2023-08-07T09:50:24;101490.13;;;26.73;92.15
48846;BME280;34665;51.886;5.436;2023-08-07T09:52:49;101500.56;;;26.02;91.41
48846;BME280;34665;51.886;5.436;2023-08-07T09:55:14;101495.56;;;26.14;91.43
48846;BME280;34665;51.886;5.436;2023-08-07T09:57:44;101495.97;;;26.37;94.40
48846;BME280;34665;51.886;5.436;2023-08-07T10:00:10;101500.16;;;27.13;90.39
48846;BME280;34665;51.886;5.436;2023-08-07T10:02:37;101506.53;;;27.95;81.27
48846;BME280;34665;51.886;5.436;2023-08-07T10:05:04;101503.72;;;27.62;84.40
48846;BME280;34665;51.886;5.436;2023-08-07T10:07:31;101511.03;;;28.43;74.67
48846;BME280;34665;51.886;5.436;2023-08-07T10:10:00;101510.59;;;28.36;70.76
48846;BME280;34665;51.886;5.436;2023-08-07T10:12:26;101513.53;;;28.26;73.75
48846;BME280;34665;51.886;5.436;2023-08-07T10:14:53;101510.94;;;29.38;71.03
48846;BME280;34665;51.886;5.436;2023-08-07T10:17:19;101507.97;;;29.62;59.08
48846;BME280;34665;51.886;5.436;2023-08-07T10:19:45;101493.50;;;29.93;63.05
48846;BME280;34665;51.886;5.436;2023-08-07T10:22:11;101507.19;;;31.07;55.72
48846;BME280;34665;51.886;5.436;2023-08-07T10:24:37;101504.38;;;30.98;55.74
48846;BME280;34665;51.886;5.436;2023-08-07T10:27:04;101509.69;;;30.86;54.34
48846;BME280;34665;51.886;5.436;2023-08-07T10:29:30;101516.25;;;31.08;49.83
48846;BME280;34665;51.886;5.436;2023-08-07T10:31:57;101504.13;;;29.49;50.55
48846;BME280;34665;51.886;5.436;2023-08-07T10:34:23;101508.63;;;29.82;55.29
48846;BME280;34665;51.886;5.436;2023-08-07T10:36:48;101522.56;;;29.62;53.00
48846;BME280;34665;51.886;5.436;2023-08-07T10:39:15;101515.56;;;29.42;51.21
48846;BME280;34665;51.886;5.436;2023-08-07T10:41:41;101534.00;;;29.56;51.23
48846;BME280;34665;51.886;5.436;2023-08-07T10:44:16;101524.16;;;29.77;51.55
48846;BME280;34665;51.886;5.436;2023-08-07T10:46:55;101528.50;;;29.56;50.96
48846;BME280;34665;51.886;5.436;2023-08-07T10:52:24;101526.38;;;29.11;60.55
48846;BME280;34665;51.886;5.436;2023-08-07T10:54:50;101526.28;;;28.69;60.04
48846;BME280;34665;51.886;5.436;2023-08-07T10:57:16;101537.22;;;28.74;66.77
48846;BME280;34665;51.886;5.436;2023-08-07T10:59:49;101540.03;;;29.16;62.65
48846;BME280;34665;51.886;5.436;2023-08-07T11:02:21;101539.75;;;29.45;58.59
48846;BME280;34665;51.886;5.436;2023-08-07T11:04:47;101556.06;;;29.56;58.52
48846;BME280;34665;51.886;5.436;2023-08-07T11:07:22;101546.53;;;29.76;57.47
48846;BME280;34665;51.886;5.436;2023-08-07T11:09:47;101545.72;;;30.12;56.66
48846;BME280;34665;51.886;5.436;2023-08-07T11:12:13;101558.34;;;30.27;53.24
48846;BME280;34665;51.886;5.436;2023-08-07T11:14:38;101547.78;;;29.14;53.05
48846;BME280;34665;51.886;5.436;2023-08-07T11:17:06;101547.50;;;29.94;57.37
48846;BME280;34665;51.886;5.436;2023-08-07T11:19:32;101556.16;;;29.09;52.19
48846;BME280;34665;51.886;5.436;2023-08-07T11:21:57;101554.16;;;29.93;54.72
48846;BME280;34665;51.886;5.436;2023-08-07T11:24:23;101557.53;;;30.72;57.03
48846;BME280;34665;51.886;5.436;2023-08-07T11:26:48;101553.41;;;30.61;52.97
48846;BME280;34665;51.886;5.436;2023-08-07T11:29:20;101559.25;;;32.07;51.18
48846;BME280;34665;51.886;5.436;2023-08-07T11:31:45;101567.16;;;32.70;49.32
48846;BME280;34665;51.886;5.436;2023-08-07T11:34:11;101562.97;;;33.72;43.93
48846;BME280;34665;51.886;5.436;2023-08-07T11:36:43;101556.75;;;34.17;46.08
48846;BME280;34665;51.886;5.436;2023-08-07T11:39:09;101565.13;;;33.66;42.85
48846;BME280;34665;51.886;5.436;2023-08-07T11:41:34;101556.19;;;33.60;45.47
48846;BME280;34665;51.886;5.436;2023-08-07T11:44:00;101567.72;;;32.46;43.88
48846;BME280;34665;51.886;5.436;2023-08-07T11:46:25;101560.78;;;31.55;41.76
48846;BME280;34665;51.886;5.436;2023-08-07T11:48:51;101564.97;;;31.35;42.97
48846;BME280;34665;51.886;5.436;2023-08-07T11:51:17;101563.16;;;32.41;47.32
48846;BME280;34665;51.886;5.436;2023-08-07T11:53:45;101571.19;;;31.41;41.17
48846;BME280;34665;51.886;5.436;2023-08-07T11:56:11;101565.44;;;31.78;43.83
48846;BME280;34665;51.886;5.436;2023-08-07T11:58:43;101558.47;;;31.31;44.22
48846;BME280;34665;51.886;5.436;2023-08-07T12:01:15;101545.94;;;31.33;50.12
48846;BME280;34665;51.886;5.436;2023-08-07T12:03:42;101560.38;;;32.24;42.73
48846;BME280;34665;51.886;5.436;2023-08-07T12:06:08;101556.84;;;30.44;46.08
48846;BME280;34665;51.886;5.436;2023-08-07T12:08:37;101559.63;;;33.27;44.43
48846;BME280;34665;51.886;5.436;2023-08-07T12:11:04;101557.38;;;33.81;41.61
48846;BME280;34665;51.886;5.436;2023-08-07T12:13:30;101550.13;;;32.98;39.57
48846;BME280;34665;51.886;5.436;2023-08-07T12:15:57;101561.34;;;34.81;34.80
48846;BME280;34665;51.886;5.436;2023-08-07T12:18:24;101564.09;;;34.35;35.91
48846;BME280;34665;51.886;5.436;2023-08-07T12:20:51;101570.31;;;33.68;37.41
48846;BME280;34665;51.886;5.436;2023-08-07T12:23:20;101565.09;;;33.06;38.97
48846;BME280;34665;51.886;5.436;2023-08-07T12:25:46;101562.84;;;33.68;34.51
48846;BME280;34665;51.886;5.436;2023-08-07T12:28:13;101561.84;;;34.15;34.70
48846;BME280;34665;51.886;5.436;2023-08-07T12:30:38;101572.44;;;34.81;34.91
48846;BME280;34665;51.886;5.436;2023-08-07T12:33:04;101572.41;;;34.01;35.51
48846;BME280;34665;51.886;5.436;2023-08-07T12:35:30;101570.47;;;32.55;37.74
48846;BME280;34665;51.886;5.436;2023-08-07T12:37:56;101563.38;;;32.93;38.23
48846;BME280;34665;51.886;5.436;2023-08-07T12:40:22;101569.25;;;32.91;40.00
48846;BME280;34665;51.886;5.436;2023-08-07T12:42:48;101563.09;;;33.54;36.49
48846;BME280;34665;51.886;5.436;2023-08-07T12:45:13;101567.59;;;35.77;35.06